Latest Weather Observations for Tuggeranong

IDN60801

Issued at 11:02 am EDT Thursday 8 December 2016 (issued every 30 minutes, with the page automatically refreshed every 10 minutes)

About weather observations | Map of weather stations | Latest weather observations for NSW | Other Formats
Station Details ID: 070339 Name: TUGGERANONG (ISABELLA PLAINS) AWS Lat: -35.42 Lon: 149.09 Height: 586.7 m
Data from the previous 72 hours. | See also: Recent months at Tuggeranong
Date/Time
EDT
Temp
°C
App
Temp
°C
Dew
Point
°C
Rel
Hum
%
Delta-T
°C
Wind Press
QNH
hPa
Press
MSL
hPa
Rain since
9am
mm
Dir  Spd
km/h
Gust
km/h
Spd
kts
Gust
kts
08/11:00am 24.9 22.0 11.1 42 8.0 NNW 17 30 9 16 1005.8 1003.3 0.0
08/10:30am 23.3 20.1 10.0 43 7.5 NNW 17 30 9 16 1006.3 1003.9 0.0
08/10:00am 21.8 19.2 10.6 49 6.3 NW 15 22 8 12 1006.9 1004.4 0.0
08/09:30am 20.5 19.5 12.2 59 4.8 NNW 9 15 5 8 1007.6 1005.1 0.0
08/09:00am 17.7 17.3 12.4 71 3.0 WNW 6 9 3 5 1008.2 1005.8 0.0
08/08:30am 16.5 15.5 12.3 76 2.4 WSW 9 11 5 6 1008.8 1006.3 0.0
08/08:00am 16.3 16.7 13.6 84 1.6 WNW 4 7 2 4 1008.9 1006.4 0.0
08/07:30am 14.7 13.2 13.1 90 0.9 NE 13 20 7 11 1009.4 1007.0 0.0
08/07:00am 11.6 11.0 10.3 92 0.7 NE 4 9 2 5 1009.8 1007.4 0.0
08/06:30am 10.2 9.9 10.1 99 0.1 WSW 2 7 1 4 1010.0 1007.6 0.0
08/06:00am 9.5 9.0 9.4 99 0.1 NW 2 7 1 4 1010.1 1007.7 0.0
08/05:30am 9.7 9.6 9.6 99 0.1 CALM 0 0 0 0 1010.5 1008.0 0.0
08/05:00am 9.8 9.8 9.7 99 0.1 CALM 0 0 0 0 1010.1 1007.7 0.0
08/04:30am 10.6 10.8 10.6 100 0.0 CALM 0 0 0 0 1010.0 1007.6 0.0
08/04:00am 10.7 10.9 10.5 99 0.1 CALM 0 0 0 0 1010.4 1007.9 0.0
08/03:30am 11.4 11.8 11.4 100 0.0 CALM 0 0 0 0 1010.8 1008.4 0.0
08/03:00am 11.7 12.1 11.1 96 0.3 CALM 0 0 0 0 1011.3 1008.9 0.0
08/02:30am 12.4 13.0 11.8 96 0.3 CALM 0 0 0 0 1011.8 1009.4 0.0
08/02:00am 13.1 13.0 12.0 93 0.6 E 4 9 2 5 1012.3 1009.9 0.0
08/01:30am 13.8 14.7 12.9 94 0.5 CALM 0 0 0 0 1012.7 1010.3 0.0
08/01:00am 14.2 14.8 11.9 86 1.3 CALM 0 0 0 0 1012.9 1010.5 0.0
08/12:30am 15.6 15.3 13.3 86 1.3 NE 7 9 4 5 1013.2 1010.8 0.0
08/12:00am 15.8 15.6 13.1 84 1.5 NNE 6 9 3 5 1013.3 1010.9 0.0
 
Date/Time
EDT
Temp
°C
App
Temp
°C
Dew
Point
°C
Rel
Hum
%
Delta-T
°C
Wind Press
QNH
hPa
Press
MSL
hPa
Rain since
9am
mm
Dir  Spd
km/h
Gust
km/h
Spd
kts
Gust
kts
07/11:30pm 16.2 16.0 12.9 81 1.9 NE 6 9 3 5 1013.2 1010.8 0.0
07/11:00pm 16.7 15.1 12.8 78 2.2 ENE 13 24 7 13 1013.1 1010.7 0.0
07/10:30pm 17.3 14.4 12.2 72 2.9 ENE 19 26 10 14 1013.1 1010.7 0.0
07/10:00pm 17.8 15.6 10.9 64 3.8 ENE 13 24 7 13 1013.2 1010.8 0.0
07/09:30pm 17.1 15.6 8.5 57 4.5 E 6 7 3 4 1013.2 1010.8 0.0
07/09:00pm 17.8 17.1 7.0 49 5.6 CALM 0 2 0 1 1013.2 1010.8 0.0
07/08:30pm 20.2 18.4 5.4 38 7.5 N 4 7 2 4 1013.0 1010.6 0.0
07/08:00pm 22.6 19.9 3.7 29 9.4 NW 7 9 4 5 1013.1 1010.7 0.0
07/07:30pm 24.2 21.4 5.1 29 9.9 WNW 9 13 5 7 1013.0 1010.6 0.0
07/07:00pm 24.8 21.0 4.0 26 10.6 WNW 13 19 7 10 1012.9 1010.5 0.0
07/06:30pm 25.2 21.2 4.9 27 10.5 NW 15 24 8 13 1012.9 1010.5 0.0
07/06:00pm 25.3 21.6 4.4 26 10.8 NNW 13 24 7 13 1012.8 1010.4 0.0
07/05:30pm 25.7 21.2 4.2 25 11.1 NW 17 26 9 14 1012.7 1010.3 0.0
07/05:00pm 25.6 21.0 3.6 24 11.2 NW 17 26 9 14 1012.9 1010.5 0.0
07/04:30pm 25.9 21.7 5.5 27 10.7 NW 17 30 9 16 1013.0 1010.6 0.0
07/04:00pm 25.6 21.5 6.3 29 10.3 NW 17 30 9 16 1013.3 1010.9 0.0
07/03:30pm 25.5 21.9 6.7 30 10.1 NNW 15 22 8 12 1013.6 1011.2 0.0
07/03:00pm 25.2 20.9 5.4 28 10.4 NW 17 28 9 15 1013.9 1011.5 0.0
07/02:30pm 25.1 20.9 5.8 29 10.2 WNW 17 32 9 17 1014.0 1011.6 0.0
07/02:00pm 24.4 21.4 7.5 34 9.1 NNW 13 33 7 18 1014.3 1011.9 0.0
07/01:30pm 23.1 19.3 7.6 37 8.3 N 17 24 9 13 1014.8 1012.4 0.0
07/01:00pm 24.2 21.9 9.0 38 8.4 N 11 22 6 12 1015.0 1012.6 0.0
07/12:30pm 22.7 18.8 7.3 37 8.2 NNW 17 28 9 15 1015.4 1013.1 0.0
07/12:00pm 22.5 20.2 9.0 42 7.4 N 11 19 6 10 1015.7 1013.3 0.0
07/11:30am 21.2 18.2 7.8 42 7.2 NNW 13 20 7 11 1016.0 1013.6 0.0
07/11:00am 19.9 16.8 7.3 44 6.6 N 13 19 7 10 1016.2 1013.8 0.0
07/10:30am 19.9 18.2 9.8 52 5.6 NNW 9 17 5 9 1016.1 1013.7 0.0
07/10:00am 19.7 19.6 10.9 57 4.9 SE 2 9 1 5 1016.1 1013.7 0.0
07/09:30am 18.5 17.0 10.6 60 4.4 E 9 13 5 7 1016.3 1013.9 0.0
07/09:00am 17.6 16.1 10.7 64 3.8 E 9 13 5 7 1016.5 1014.1 0.0
07/08:30am 16.9 16.0 11.4 70 3.1 W 7 11 4 6 1016.5 1014.1 0.0
07/08:00am 15.8 15.5 11.4 75 2.4 SSE 4 7 2 4 1016.7 1014.3 0.0
07/07:30am 14.8 15.4 11.8 82 1.7 CALM 0 0 0 0 1016.3 1013.9 0.0
07/07:00am 12.6 13.0 11.3 92 0.7 CALM 0 0 0 0 1016.1 1013.7 0.0
07/06:30am 10.7 10.9 10.5 99 0.1 CALM 0 0 0 0 1015.8 1013.4 0.0
07/06:00am 9.6 9.5 9.5 99 0.1 CALM 0 0 0 0 1015.2 1012.9 0.0
07/05:30am 9.8 9.7 9.3 97 0.3 CALM 0 7 0 4 1015.1 1012.7 0.0
07/05:00am 10.4 10.3 9.3 93 0.6 CALM 0 0 0 0 1014.5 1012.1 0.0
07/04:30am 11.5 10.6 10.6 94 0.5 E 6 9 3 5 1014.1 1011.7 0.0
07/04:00am 11.5 10.6 10.6 94 0.5 ENE 6 9 3 5 1013.9 1011.5 0.0
07/03:30am 12.0 10.9 10.7 92 0.7 ENE 7 9 4 5 1013.6 1011.2 0.0
07/03:00am 12.6 12.2 11.0 90 0.9 ENE 4 7 2 4 1013.9 1011.5 0.0
07/02:30am 13.0 12.3 11.4 90 0.9 ENE 6 7 3 4 1013.7 1011.4 0.0
07/02:00am 13.5 13.9 11.2 86 1.3 CALM 0 6 0 3 1014.0 1011.6 0.0
07/01:30am 14.3 13.6 11.5 83 1.5 E 6 7 3 4 1014.2 1011.8 0.0
07/01:00am 15.4 15.8 11.2 76 2.3 CALM 0 0 0 0 1014.5 1012.1 0.0
07/12:30am 16.2 15.3 11.4 73 2.7 NE 7 9 4 5 1014.5 1012.1 0.0
07/12:00am 16.6 17.0 11.1 70 3.0 CALM 0 4 0 2 1014.4 1012.0 0.0
 
Date/Time
EDT
Temp
°C
App
Temp
°C
Dew
Point
°C
Rel
Hum
%
Delta-T
°C
Wind Press
QNH
hPa
Press
MSL
hPa
Rain since
9am
mm
Dir  Spd
km/h
Gust
km/h
Spd
kts
Gust
kts
06/11:30pm 16.6 15.8 10.9 69 3.1 W 6 11 3 6 1014.2 1011.8 0.0
06/11:00pm 17.2 16.2 11.0 67 3.4 NW 7 11 4 6 1014.2 1011.8 0.0
06/10:30pm 17.6 16.6 10.9 65 3.7 NNW 7 11 4 6 1014.3 1011.9 0.0
06/10:00pm 17.9 16.6 11.2 65 3.7 NW 9 17 5 9 1014.1 1011.7 0.0
06/09:30pm 18.1 16.0 11.2 64 3.9 WNW 13 19 7 10 1014.1 1011.7 0.0
06/09:00pm 18.3 17.0 11.1 63 4.0 N 9 11 5 6 1014.0 1011.6 0.0
06/08:30pm 18.5 17.4 10.6 60 4.4 NNW 7 13 4 7 1013.3 1010.9 0.0
06/08:00pm 18.9 16.2 10.2 57 4.8 NW 15 20 8 11 1013.1 1010.7 0.0
06/07:30pm 19.2 16.3 9.7 54 5.2 NW 15 22 8 12 1012.7 1010.3 0.0
06/07:00pm 19.7 17.0 9.0 50 5.8 NNW 13 22 7 12 1012.7 1010.3 0.0
06/06:30pm 20.1 16.9 8.4 47 6.3 NW 15 28 8 15 1012.1 1009.6 0.0
06/06:00pm 20.7 17.2 8.7 46 6.5 NW 17 24 9 13 1011.3 1008.9 0.0
06/05:30pm 21.3 17.3 8.2 43 7.1 NW 19 30 10 16 1011.3 1008.9 0.0
06/05:00pm 21.9 19.2 8.8 43 7.2 NW 13 20 7 11 1011.5 1009.1 0.0
06/04:30pm 22.0 19.1 9.5 45 6.9 NW 15 28 8 15 1011.5 1009.1 0.0
06/04:00pm 22.3 20.0 13.1 56 5.4 NW 17 28 9 15 1011.4 1009.0 0.0
06/03:30pm 22.6 21.5 14.2 59 5.1 NW 13 24 7 13 1011.4 1009.0 0.0
06/03:00pm 22.1 20.5 15.0 64 4.3 N 17 22 9 12 1011.8 1009.4 0.0
06/02:30pm 21.8 20.7 14.4 63 4.5 NNW 13 24 7 13 1012.2 1009.7 0.0
06/02:00pm 21.6 20.8 15.0 66 4.0 N 13 22 7 12 1011.8 1009.4 0.0
06/01:30pm 21.4 21.2 15.7 70 3.5 NNW 11 17 6 9 1012.4 1010.0 0.0
06/01:00pm 21.3 21.7 16.3 73 3.1 N 9 13 5 7 1012.8 1010.4 0.0
06/12:30pm 21.1 22.0 17.5 80 2.3 NW 9 15 5 8 1013.1 1010.7 0.0
06/12:00pm 20.5 21.7 17.3 82 2.0 NNE 7 11 4 6 1013.0 1010.6 0.0
06/11:30am 20.2 20.8 17.6 85 1.6 NNE 11 15 6 8 1012.8 1010.4 0.0
06/11:00am 20.2 22.0 17.4 84 1.8 NE 4 9 2 5 1013.4 1011.0 0.0
06/10:30am 19.8 21.0 17.4 86 1.5 N 7 13 4 7 1013.6 1011.2 0.0
06/10:00am 19.5 20.4 17.5 88 1.3 N 9 15 5 8 1013.6 1011.2 0.0
06/09:30am 18.7 19.5 17.4 92 0.8 NNW 9 13 5 7 1014.3 1011.9 0.0
06/09:00am 18.7 20.5 18.7 100 0.0 NW 7 9 4 5 1014.2 1011.8 29.6
06/08:30am 18.2 20.7 18.2 100 0.0 WNW 2 9 1 5 1013.9 1011.5 29.6
06/08:00am 18.0 20.4 18.0 100 0.0 WNW 2 7 1 4 1013.4 1011.0 29.6
06/07:30am 17.8 19.2 17.8 100 0.0 NNW 7 9 4 5 1013.2 1010.8 29.6
06/07:00am 17.8 19.8 17.8 100 0.0 NW 4 7 2 4 1013.3 1010.9 29.4
06/06:30am 17.7 20.0 17.7 100 0.0 NNE 2 9 1 5 1012.7 1010.3 29.2
06/06:00am 17.6 20.2 17.6 100 0.0 CALM 0 0 0 0 1013.1 1010.7 29.0
06/05:30am 17.6 20.2 17.6 100 0.0 CALM 0 0 0 0 1013.2 1010.8 27.8
06/05:00am 17.6 19.9 17.6 100 0.0 NNE 2 7 1 4 1013.1 1010.7 27.6
06/04:30am 17.6 20.2 17.6 100 0.0 CALM 0 0 0 0 1012.7 1010.3 27.0
06/04:00am 17.6 20.2 17.6 100 0.0 CALM 0 0 0 0 1012.7 1010.3 27.0
06/03:30am 17.5 19.3 17.5 100 0.0 SW 4 6 2 3 1013.1 1010.7 26.8
06/03:00am 17.5 19.0 17.5 100 0.0 ESE 6 7 3 4 1013.1 1010.7 26.2
06/02:30am 17.3 19.8 17.3 100 0.0 CALM 0 0 0 0 1013.6 1011.2 26.2
06/02:00am 17.4 19.6 17.4 100 0.0 NE 2 9 1 5 1013.9 1011.5 26.0
06/01:30am 17.5 18.4 17.5 100 0.0 NNE 9 11 5 6 1014.3 1011.9 24.4
06/01:00am 17.4 18.6 17.4 100 0.0 SW 7 13 4 7 1015.0 1012.6 13.6
06/12:30am 17.8 18.9 17.2 96 0.4 WSW 7 9 4 5 1015.0 1012.6 5.2
06/12:00am 18.6 19.7 16.6 88 1.2 NNE 6 11 3 6 1014.6 1012.2 1.8
 
Date/Time
EDT
Temp
°C
App
Temp
°C
Dew
Point
°C
Rel
Hum
%
Delta-T
°C
Wind Press
QNH
hPa
Press
MSL
hPa
Rain since
9am
mm
Dir  Spd
km/h
Gust
km/h
Spd
kts
Gust
kts
05/11:30pm 19.4 21.3 15.7 79 2.3 CALM 0 6 0 3 1014.5 1012.1 1.2
05/11:00pm 19.9 19.8 14.9 73 3.0 NE 9 15 5 8 1014.4 1012.0 0.0
05/10:30pm 20.3 19.1 15.1 72 3.1 ENE 15 26 8 14 1013.7 1011.4 0.0
05/10:00pm 20.9 19.3 15.0 69 3.6 ENE 17 30 9 16 1013.1 1010.7 0.0
05/09:30pm 23.1 22.3 15.2 61 4.8 ESE 13 30 7 16 1012.8 1010.4 0.0
05/09:00pm 24.6 23.4 14.1 52 6.4 SE 13 22 7 12 1012.5 1010.1 0.0
05/08:30pm 25.7 27.6 15.7 54 6.2 CALM 0 0 0 0 1012.1 1009.6 0.0
05/08:00pm 27.1 29.0 15.8 50 7.1 CALM 0 0 0 0 1011.8 1009.4 0.0
05/07:30pm 28.1 27.8 14.3 42 8.5 NW 9 17 5 9 1011.1 1008.7 0.0
05/07:00pm 28.7 27.7 14.5 42 8.8 WNW 13 22 7 12 1010.6 1008.1 0.0
05/06:30pm 29.5 28.1 14.5 40 9.3 NW 15 24 8 13 1010.3 1007.8 0.0
05/06:00pm 29.3 28.7 14.7 41 9.1 WNW 11 19 6 10 1009.7 1007.3 0.0
05/05:30pm 29.7 28.6 14.3 39 9.5 WNW 13 19 7 10 1009.7 1007.3 0.0
05/05:00pm 31.2 30.3 14.8 37 10.3 NW 13 22 7 12 1009.8 1007.4 0.0
05/04:30pm 30.5 27.8 14.6 38 9.9 WNW 22 32 12 17 1010.1 1007.7 0.0
05/04:00pm 30.0 27.3 14.5 38 9.6 WNW 22 35 12 19 1010.5 1008.0 0.0
05/03:30pm 28.9 26.5 13.9 39 9.2 NW 19 30 10 16 1010.5 1008.0 0.0
05/03:00pm 29.5 27.2 12.9 36 10.1 WNW 17 28 9 15 1010.4 1007.9 0.0
05/02:30pm 30.1 28.1 13.8 37 10.0 NW 17 26 9 14 1010.3 1007.8 0.0
05/02:00pm 29.8 28.7 14.4 39 9.6 NW 13 22 7 12 1010.5 1008.0 0.0
05/01:30pm 29.5 28.3 14.1 39 9.5 NW 13 22 7 12 1010.5 1008.0 0.0
05/01:00pm 29.0 28.8 14.8 42 8.8 NNW 9 19 5 10 1010.4 1007.9 0.0
05/12:30pm 28.4 28.4 16.3 47 7.7 N 11 19 6 10 1010.7 1008.3 0.0
05/12:00pm 27.9 28.0 16.5 50 7.3 N 11 17 6 9 1010.9 1008.5 0.0
05/11:30am 27.6 28.2 16.9 52 6.8 NW 9 15 5 8 1010.9 1008.5 0.0

Other Formats:

Comma delimited format used in spreadsheet applications
http://www.bom.gov.au/fwo/IDN60801/IDN60801.94925.axf

JavaScript Object Notation format (JSON) in row-major order
http://www.bom.gov.au/fwo/IDN60801/IDN60801.94925.json